sensor_id;sensor_type;location;lat;lon;timestamp;pressure;altitude;pressure_sealevel;temperature;humidity
75747;BME280;70632;52.232;21.038;2023-09-30T12:26:16;100620.97;;;35.78;28.20
75747;BME280;70632;52.232;21.038;2023-09-30T12:28:46;100619.81;;;36.06;27.41
75747;BME280;70632;52.232;21.038;2023-09-30T12:31:18;100627.72;;;36.96;25.93
75747;BME280;70632;52.232;21.038;2023-09-30T12:34:15;100621.63;;;37.98;24.63
75747;BME280;70632;52.232;21.038;2023-09-30T12:36:42;100628.69;;;38.45;24.96
75747;BME280;70632;52.232;21.038;2023-09-30T12:44:17;100617.03;;;40.45;22.30
75747;BME280;70632;52.232;21.038;2023-09-30T12:46:44;100622.75;;;39.65;22.66
75747;BME280;70632;52.232;21.038;2023-09-30T12:49:13;100611.38;;;39.24;23.32
75747;BME280;70632;52.232;21.038;2023-09-30T12:51:39;100621.44;;;37.80;24.00
75747;BME280;70632;52.232;21.038;2023-09-30T12:54:05;100623.50;;;39.36;23.04
75747;BME280;70632;52.232;21.038;2023-09-30T12:56:31;100616.88;;;39.55;22.17
75747;BME280;70632;52.232;21.038;2023-09-30T12:58:57;100621.69;;;38.67;23.94
75747;BME280;70632;52.232;21.038;2023-09-30T13:01:23;100626.88;;;38.95;22.34
75747;BME280;70632;52.232;21.038;2023-09-30T13:18:08;100619.44;;;35.13;25.42
75747;BME280;70632;52.232;21.038;2023-09-30T13:20:34;100614.22;;;36.00;25.08
75747;BME280;70632;52.232;21.038;2023-09-30T13:22:59;100624.06;;;37.48;23.08
75747;BME280;70632;52.232;21.038;2023-09-30T13:25:26;100624.75;;;37.31;22.77
75747;BME280;70632;52.232;21.038;2023-09-30T13:27:52;100614.91;;;37.22;22.94
75747;BME280;70632;52.232;21.038;2023-09-30T13:30:18;100620.31;;;38.76;20.87
75747;BME280;70632;52.232;21.038;2023-09-30T13:32:43;100607.25;;;39.51;20.68
75747;BME280;70632;52.232;21.038;2023-09-30T13:35:10;100612.69;;;40.19;19.71
75747;BME280;70632;52.232;21.038;2023-09-30T13:37:35;100612.38;;;39.05;20.75
75747;BME280;70632;52.232;21.038;2023-09-30T13:40:03;100606.88;;;39.84;20.22
75747;BME280;70632;52.232;21.038;2023-09-30T13:42:34;100605.03;;;39.96;19.59
75747;BME280;70632;52.232;21.038;2023-09-30T13:45:01;100609.13;;;39.94;19.43
75747;BME280;70632;52.232;21.038;2023-09-30T13:47:28;100622.53;;;38.68;20.54
75747;BME280;70632;52.232;21.038;2023-09-30T13:49:54;100610.00;;;36.71;20.95
75747;BME280;70632;52.232;21.038;2023-09-30T13:52:20;100615.34;;;35.64;22.67
75747;BME280;70632;52.232;21.038;2023-09-30T13:54:46;100616.19;;;37.39;21.13
75747;BME280;70632;52.232;21.038;2023-09-30T13:57:12;100611.47;;;36.93;20.87
75747;BME280;70632;52.232;21.038;2023-09-30T13:59:39;100624.63;;;35.85;21.37
75747;BME280;70632;52.232;21.038;2023-09-30T14:02:05;100617.25;;;36.98;21.02
75747;BME280;70632;52.232;21.038;2023-09-30T14:04:34;100610.72;;;35.78;20.86
75747;BME280;70632;52.232;21.038;2023-09-30T14:07:03;100616.28;;;36.19;21.06
75747;BME280;70632;52.232;21.038;2023-09-30T14:09:31;100610.69;;;34.67;21.36
75747;BME280;70632;52.232;21.038;2023-09-30T14:11:57;100627.00;;;34.19;21.47
75747;BME280;70632;52.232;21.038;2023-09-30T14:14:24;100618.78;;;34.26;21.40
75747;BME280;70632;52.232;21.038;2023-09-30T14:16:50;100631.34;;;33.11;21.79
75747;BME280;70632;52.232;21.038;2023-09-30T14:19:17;100612.25;;;34.69;20.24
75747;BME280;70632;52.232;21.038;2023-09-30T14:21:43;100635.91;;;33.42;21.75
75747;BME280;70632;52.232;21.038;2023-09-30T14:24:11;100616.31;;;35.85;19.35
75747;BME280;70632;52.232;21.038;2023-09-30T14:26:37;100625.75;;;35.07;20.01
75747;BME280;70632;52.232;21.038;2023-09-30T14:29:03;100628.59;;;36.90;18.67
75747;BME280;70632;52.232;21.038;2023-09-30T14:31:29;100612.44;;;35.45;20.16
75747;BME280;70632;52.232;21.038;2023-09-30T14:33:55;100631.19;;;34.66;20.80
75747;BME280;70632;52.232;21.038;2023-09-30T14:36:20;100639.84;;;32.41;22.63
75747;BME280;70632;52.232;21.038;2023-09-30T14:38:48;100627.44;;;34.59;20.89
75747;BME280;70632;52.232;21.038;2023-09-30T14:41:15;100640.16;;;34.96;20.44
75747;BME280;70632;52.232;21.038;2023-09-30T14:43:41;100631.84;;;34.96;20.41
75747;BME280;70632;52.232;21.038;2023-09-30T14:46:07;100635.63;;;33.80;20.96
75747;BME280;70632;52.232;21.038;2023-09-30T14:48:34;100630.41;;;33.85;21.28
75747;BME280;70632;52.232;21.038;2023-09-30T14:51:01;100635.78;;;34.08;20.68
75747;BME280;70632;52.232;21.038;2023-09-30T14:53:31;100642.53;;;34.99;20.44
75747;BME280;70632;52.232;21.038;2023-09-30T14:55:56;100644.53;;;35.60;19.72
75747;BME280;70632;52.232;21.038;2023-09-30T14:58:22;100645.81;;;34.09;21.25
75747;BME280;70632;52.232;21.038;2023-09-30T15:00:48;100649.09;;;33.69;21.40
75747;BME280;70632;52.232;21.038;2023-09-30T15:03:14;100650.13;;;32.25;22.74
75747;BME280;70632;52.232;21.038;2023-09-30T15:05:43;100649.44;;;33.22;21.16
75747;BME280;70632;52.232;21.038;2023-09-30T15:08:08;100659.28;;;33.83;20.99
75747;BME280;70632;52.232;21.038;2023-09-30T15:10:35;100664.06;;;34.18;20.43
75747;BME280;70632;52.232;21.038;2023-09-30T15:13:02;100664.72;;;34.20;20.36
75747;BME280;70632;52.232;21.038;2023-09-30T15:15:29;100657.88;;;33.72;21.62
75747;BME280;70632;52.232;21.038;2023-09-30T15:17:55;100666.59;;;34.56;20.28
75747;BME280;70632;52.232;21.038;2023-09-30T15:20:22;100664.78;;;33.24;21.30
75747;BME280;70632;52.232;21.038;2023-09-30T15:22:50;100670.94;;;33.78;21.66
75747;BME280;70632;52.232;21.038;2023-09-30T15:25:16;100674.75;;;34.21;20.77
75747;BME280;70632;52.232;21.038;2023-09-30T15:27:44;100676.75;;;34.49;20.64
75747;BME280;70632;52.232;21.038;2023-09-30T15:33:06;100678.16;;;34.74;20.62
75747;BME280;70632;52.232;21.038;2023-09-30T15:35:32;100686.66;;;34.07;20.34
75747;BME280;70632;52.232;21.038;2023-09-30T15:37:58;100685.72;;;34.00;21.32
75747;BME280;70632;52.232;21.038;2023-09-30T15:40:24;100689.72;;;34.12;20.65
75747;BME280;70632;52.232;21.038;2023-09-30T15:42:50;100687.78;;;35.48;19.34
75747;BME280;70632;52.232;21.038;2023-09-30T15:45:16;100696.56;;;34.46;21.04
75747;BME280;70632;52.232;21.038;2023-09-30T15:47:44;100694.69;;;34.02;21.66
75747;BME280;70632;52.232;21.038;2023-09-30T15:50:10;100698.91;;;33.69;21.60
75747;BME280;70632;52.232;21.038;2023-09-30T15:52:37;100693.81;;;34.67;20.32
75747;BME280;70632;52.232;21.038;2023-09-30T15:55:03;100704.13;;;35.37;20.59
75747;BME280;70632;52.232;21.038;2023-09-30T15:57:29;100695.03;;;35.77;20.42
75747;BME280;70632;52.232;21.038;2023-09-30T15:59:54;100706.09;;;35.43;19.69
75747;BME280;70632;52.232;21.038;2023-09-30T16:02:20;100705.84;;;34.38;21.15
75747;BME280;70632;52.232;21.038;2023-09-30T16:04:46;100708.41;;;34.97;21.20
75747;BME280;70632;52.232;21.038;2023-09-30T16:07:12;100714.44;;;32.87;23.05
75747;BME280;70632;52.232;21.038;2023-09-30T16:09:37;100721.88;;;32.56;22.80
75747;BME280;70632;52.232;21.038;2023-09-30T16:12:04;100723.94;;;34.70;20.73
75747;BME280;70632;52.232;21.038;2023-09-30T16:14:30;100725.91;;;34.97;20.45
75747;BME280;70632;52.232;21.038;2023-09-30T16:16:56;100728.28;;;32.56;22.78
75747;BME280;70632;52.232;21.038;2023-09-30T16:19:22;100737.88;;;32.37;23.22
75747;BME280;70632;52.232;21.038;2023-09-30T16:21:48;100737.84;;;33.82;21.80
75747;BME280;70632;52.232;21.038;2023-09-30T16:29:27;100745.97;;;32.78;22.21
75747;BME280;70632;52.232;21.038;2023-09-30T16:31:54;100754.50;;;33.36;22.36
75747;BME280;70632;52.232;21.038;2023-09-30T16:34:19;100756.47;;;33.05;21.98
75747;BME280;70632;52.232;21.038;2023-09-30T16:36:45;100749.94;;;31.89;23.93
75747;BME280;70632;52.232;21.038;2023-09-30T16:39:11;100747.88;;;33.00;22.76
75747;BME280;70632;52.232;21.038;2023-09-30T16:41:42;100757.19;;;34.11;21.31
75747;BME280;70632;52.232;21.038;2023-09-30T16:44:08;100755.03;;;32.86;22.84
75747;BME280;70632;52.232;21.038;2023-09-30T16:46:34;100750.03;;;33.13;22.24
75747;BME280;70632;52.232;21.038;2023-09-30T16:48:59;100767.53;;;33.05;21.92
75747;BME280;70632;52.232;21.038;2023-09-30T16:51:25;100758.22;;;33.44;21.96
75747;BME280;70632;52.232;21.038;2023-09-30T16:53:51;100759.19;;;32.52;22.61
75747;BME280;70632;52.232;21.038;2023-09-30T16:56:17;100764.97;;;31.71;23.84
75747;BME280;70632;52.232;21.038;2023-09-30T16:58:43;100773.53;;;30.37;25.56
75747;BME280;70632;52.232;21.038;2023-09-30T17:01:10;100771.53;;;31.37;24.24
75747;BME280;70632;52.232;21.038;2023-09-30T17:03:35;100765.66;;;31.48;24.43
75747;BME280;70632;52.232;21.038;2023-09-30T17:06:01;100773.88;;;32.05;23.65
75747;BME280;70632;52.232;21.038;2023-09-30T17:08:27;100777.63;;;32.20;23.58
75747;BME280;70632;52.232;21.038;2023-09-30T17:10:53;100773.91;;;31.89;23.93
75747;BME280;70632;52.232;21.038;2023-09-30T17:13:20;100781.91;;;30.27;25.59
75747;BME280;70632;52.232;21.038;2023-09-30T17:15:46;100776.88;;;30.48;25.28
75747;BME280;70632;52.232;21.038;2023-09-30T17:18:12;100774.22;;;30.81;25.05
75747;BME280;70632;52.232;21.038;2023-09-30T17:20:42;100789.03;;;30.88;24.80
75747;BME280;70632;52.232;21.038;2023-09-30T17:23:10;100779.63;;;30.48;25.72
75747;BME280;70632;52.232;21.038;2023-09-30T17:25:36;100785.66;;;29.66;26.92
75747;BME280;70632;52.232;21.038;2023-09-30T17:28:02;100778.47;;;30.25;25.81
75747;BME280;70632;52.232;21.038;2023-09-30T17:30:28;100786.41;;;29.51;26.77
75747;BME280;70632;52.232;21.038;2023-09-30T17:32:54;100797.75;;;29.99;26.32
75747;BME280;70632;52.232;21.038;2023-09-30T17:35:19;100788.84;;;30.39;25.45
75747;BME280;70632;52.232;21.038;2023-09-30T17:37:45;100787.28;;;29.51;26.89
75747;BME280;70632;52.232;21.038;2023-09-30T17:40:13;100789.66;;;29.98;26.22
75747;BME280;70632;52.232;21.038;2023-09-30T17:42:38;100802.66;;;30.13;26.50
75747;BME280;70632;52.232;21.038;2023-09-30T17:45:05;100805.06;;;30.92;25.40
75747;BME280;70632;52.232;21.038;2023-09-30T17:47:31;100807.59;;;30.86;25.36
75747;BME280;70632;52.232;21.038;2023-09-30T17:49:57;100812.63;;;30.14;26.22
75747;BME280;70632;52.232;21.038;2023-09-30T17:52:22;100814.13;;;30.01;26.13
75747;BME280;70632;52.232;21.038;2023-09-30T17:54:48;100800.72;;;30.40;25.89
75747;BME280;70632;52.232;21.038;2023-09-30T17:57:13;100810.13;;;31.13;25.15
75747;BME280;70632;52.232;21.038;2023-09-30T17:59:40;100802.22;;;30.34;25.67
75747;BME280;70632;52.232;21.038;2023-09-30T18:02:06;100806.81;;;29.13;26.95
75747;BME280;70632;52.232;21.038;2023-09-30T18:04:31;100806.91;;;29.82;26.25
75747;BME280;70632;52.232;21.038;2023-09-30T18:06:57;100820.78;;;29.72;26.55
75747;BME280;70632;52.232;21.038;2023-09-30T18:09:24;100807.59;;;29.05;27.06
75747;BME280;70632;52.232;21.038;2023-09-30T18:11:49;100817.91;;;29.56;27.03
75747;BME280;70632;52.232;21.038;2023-09-30T18:14:17;100814.91;;;28.42;28.47
75747;BME280;70632;52.232;21.038;2023-09-30T18:16:43;100816.03;;;30.84;25.33
75747;BME280;70632;52.232;21.038;2023-09-30T18:19:09;100813.63;;;29.62;26.48
75747;BME280;70632;52.232;21.038;2023-09-30T18:21:35;100822.66;;;29.54;26.69
75747;BME280;70632;52.232;21.038;2023-09-30T18:24:01;100817.06;;;30.07;25.79
75747;BME280;70632;52.232;21.038;2023-09-30T18:26:27;100812.25;;;29.84;26.60
75747;BME280;70632;52.232;21.038;2023-09-30T18:28:52;100812.59;;;29.81;26.78
75747;BME280;70632;52.232;21.038;2023-09-30T18:31:20;100811.97;;;28.53;28.96
75747;BME280;70632;52.232;21.038;2023-09-30T18:33:46;100813.69;;;30.21;26.16
75747;BME280;70632;52.232;21.038;2023-09-30T18:36:12;100814.22;;;30.17;26.46
75747;BME280;70632;52.232;21.038;2023-09-30T18:38:38;100805.19;;;29.38;27.56
75747;BME280;70632;52.232;21.038;2023-09-30T18:41:11;100813.50;;;29.46;27.30
75747;BME280;70632;52.232;21.038;2023-09-30T18:43:39;100831.47;;;28.23;28.87
75747;BME280;70632;52.232;21.038;2023-09-30T18:46:08;100814.75;;;29.34;28.23
75747;BME280;70632;52.232;21.038;2023-09-30T18:48:47;100810.06;;;28.36;29.20
75747;BME280;70632;52.232;21.038;2023-09-30T18:51:18;100810.25;;;28.97;28.34
75747;BME280;70632;52.232;21.038;2023-09-30T18:53:44;100811.22;;;29.85;27.43
75747;BME280;70632;52.232;21.038;2023-09-30T18:56:09;100805.22;;;29.63;27.40
75747;BME280;70632;52.232;21.038;2023-09-30T18:58:36;100807.97;;;29.63;27.23
75747;BME280;70632;52.232;21.038;2023-09-30T19:01:02;100803.44;;;29.01;28.66
75747;BME280;70632;52.232;21.038;2023-09-30T19:03:38;100809.53;;;28.77;28.70
75747;BME280;70632;52.232;21.038;2023-09-30T19:06:03;100814.16;;;30.09;26.77
75747;BME280;70632;52.232;21.038;2023-09-30T19:08:29;100817.56;;;30.03;26.93
75747;BME280;70632;52.232;21.038;2023-09-30T19:10:55;100817.06;;;28.75;29.09
75747;BME280;70632;52.232;21.038;2023-09-30T19:13:20;100812.75;;;28.73;29.08
75747;BME280;70632;52.232;21.038;2023-09-30T19:15:46;100825.00;;;28.51;29.14
75747;BME280;70632;52.232;21.038;2023-09-30T19:18:12;100821.25;;;28.97;28.79
75747;BME280;70632;52.232;21.038;2023-09-30T19:20:38;100825.53;;;27.71;30.21
75747;BME280;70632;52.232;21.038;2023-09-30T19:23:04;100828.09;;;28.38;29.42
75747;BME280;70632;52.232;21.038;2023-09-30T19:25:31;100822.41;;;28.13;29.92
75747;BME280;70632;52.232;21.038;2023-09-30T19:27:56;100821.13;;;28.44;28.85
75747;BME280;70632;52.232;21.038;2023-09-30T19:30:22;100839.97;;;29.90;26.99
75747;BME280;70632;52.232;21.038;2023-09-30T19:32:48;100833.25;;;28.14;29.91
75747;BME280;70632;52.232;21.038;2023-09-30T19:35:14;100835.47;;;27.91;29.54
75747;BME280;70632;52.232;21.038;2023-09-30T19:37:40;100833.78;;;27.23;30.86
75747;BME280;70632;52.232;21.038;2023-09-30T19:40:06;100845.66;;;28.46;29.07
75747;BME280;70632;52.232;21.038;2023-09-30T19:42:32;100835.19;;;28.86;28.96
75747;BME280;70632;52.232;21.038;2023-09-30T19:44:58;100841.22;;;29.52;28.25
75747;BME280;70632;52.232;21.038;2023-09-30T19:47:25;100838.34;;;29.36;28.21
75747;BME280;70632;52.232;21.038;2023-09-30T19:49:51;100854.75;;;28.46;29.13
75747;BME280;70632;52.232;21.038;2023-09-30T19:52:17;100838.09;;;28.57;29.13
75747;BME280;70632;52.232;21.038;2023-09-30T19:54:43;100855.91;;;29.43;27.52
75747;BME280;70632;52.232;21.038;2023-09-30T19:57:09;100849.41;;;28.08;29.99
75747;BME280;70632;52.232;21.038;2023-09-30T19:59:39;100851.75;;;28.40;29.54
75747;BME280;70632;52.232;21.038;2023-09-30T20:02:06;100848.69;;;30.03;27.45
75747;BME280;70632;52.232;21.038;2023-09-30T20:04:32;100863.63;;;28.67;29.07
75747;BME280;70632;52.232;21.038;2023-09-30T20:06:57;100869.44;;;28.18;30.00
75747;BME280;70632;52.232;21.038;2023-09-30T20:09:24;100869.91;;;28.50;29.42
75747;BME280;70632;52.232;21.038;2023-09-30T20:11:52;100869.19;;;29.03;28.84
75747;BME280;70632;52.232;21.038;2023-09-30T20:14:38;100866.91;;;28.98;29.52
75747;BME280;70632;52.232;21.038;2023-09-30T20:17:04;100873.75;;;28.57;28.85
75747;BME280;70632;52.232;21.038;2023-09-30T20:19:30;100868.22;;;27.45;31.05
75747;BME280;70632;52.232;21.038;2023-09-30T20:21:56;100870.84;;;28.68;29.71
75747;BME280;70632;52.232;21.038;2023-09-30T20:24:22;100880.75;;;29.77;27.86
75747;BME280;70632;52.232;21.038;2023-09-30T20:26:48;100871.19;;;28.56;29.76
75747;BME280;70632;52.232;21.038;2023-09-30T20:29:13;100874.03;;;28.64;29.42
75747;BME280;70632;52.232;21.038;2023-09-30T20:31:39;100873.28;;;28.34;30.16
75747;BME280;70632;52.232;21.038;2023-09-30T20:34:05;100866.41;;;28.21;30.01
75747;BME280;70632;52.232;21.038;2023-09-30T20:36:34;100862.19;;;27.32;31.59
75747;BME280;70632;52.232;21.038;2023-09-30T20:38:59;100870.47;;;28.81;29.39
75747;BME280;70632;52.232;21.038;2023-09-30T20:41:25;100874.38;;;29.06;28.84
75747;BME280;70632;52.232;21.038;2023-09-30T20:43:52;100882.94;;;27.73;31.08
75747;BME280;70632;52.232;21.038;2023-09-30T20:46:18;100871.25;;;29.01;29.76
75747;BME280;70632;52.232;21.038;2023-09-30T20:48:43;100867.31;;;27.92;30.30
75747;BME280;70632;52.232;21.038;2023-09-30T20:51:11;100872.84;;;28.76;29.23
75747;BME280;70632;52.232;21.038;2023-09-30T20:53:37;100881.88;;;28.03;30.49
75747;BME280;70632;52.232;21.038;2023-09-30T20:56:09;100886.97;;;27.69;31.43
75747;BME280;70632;52.232;21.038;2023-09-30T20:58:36;100887.56;;;27.72;31.12
75747;BME280;70632;52.232;21.038;2023-09-30T21:01:06;100879.88;;;28.51;29.47
75747;BME280;70632;52.232;21.038;2023-09-30T21:03:32;100884.94;;;28.00;30.21
75747;BME280;70632;52.232;21.038;2023-09-30T21:06:05;100886.19;;;28.24;29.97
75747;BME280;70632;52.232;21.038;2023-09-30T21:08:32;100896.03;;;27.98;30.10
75747;BME280;70632;52.232;21.038;2023-09-30T21:10:57;100885.63;;;29.12;28.36
75747;BME280;70632;52.232;21.038;2023-09-30T21:13:24;100872.25;;;29.45;28.05
75747;BME280;70632;52.232;21.038;2023-09-30T21:15:50;100899.50;;;28.56;29.72
75747;BME280;70632;52.232;21.038;2023-09-30T21:18:15;100896.56;;;28.67;29.66
75747;BME280;70632;52.232;21.038;2023-09-30T21:20:41;100892.50;;;28.34;29.89
75747;BME280;70632;52.232;21.038;2023-09-30T21:23:07;100901.94;;;27.26;31.28
75747;BME280;70632;52.232;21.038;2023-09-30T21:25:36;100896.66;;;29.03;28.88
75747;BME280;70632;52.232;21.038;2023-09-30T21:28:02;100907.72;;;27.42;30.96
75747;BME280;70632;52.232;21.038;2023-09-30T21:30:28;100911.75;;;27.29;31.08
75747;BME280;70632;52.232;21.038;2023-09-30T21:32:56;100911.22;;;28.86;29.81
75747;BME280;70632;52.232;21.038;2023-09-30T21:35:37;100918.69;;;27.90;30.64
75747;BME280;70632;52.232;21.038;2023-09-30T21:38:03;100905.66;;;28.31;29.98
75747;BME280;70632;52.232;21.038;2023-09-30T21:40:33;100914.31;;;28.36;29.93
75747;BME280;70632;52.232;21.038;2023-09-30T21:43:01;100920.69;;;27.31;31.46
75747;BME280;70632;52.232;21.038;2023-09-30T21:45:28;100926.94;;;27.62;30.64
75747;BME280;70632;52.232;21.038;2023-09-30T21:47:54;100921.78;;;27.09;32.09
75747;BME280;70632;52.232;21.038;2023-09-30T21:50:22;100923.34;;;27.71;30.83
75747;BME280;70632;52.232;21.038;2023-09-30T21:52:48;100920.13;;;28.14;29.97
75747;BME280;70632;52.232;21.038;2023-09-30T21:55:14;100909.28;;;26.76;32.35
75747;BME280;70632;52.232;21.038;2023-09-30T21:57:42;100903.69;;;27.95;30.38
75747;BME280;70632;52.232;21.038;2023-09-30T22:00:08;100912.97;;;27.55;30.61
75747;BME280;70632;52.232;21.038;2023-09-30T22:02:40;100906.34;;;27.48;30.97
75747;BME280;70632;52.232;21.038;2023-09-30T22:05:06;100901.91;;;27.17;30.98
75747;BME280;70632;52.232;21.038;2023-09-30T22:07:37;100910.28;;;27.25;31.29
75747;BME280;70632;52.232;21.038;2023-09-30T22:10:06;100914.41;;;29.26;28.22
75747;BME280;70632;52.232;21.038;2023-09-30T22:12:33;100909.47;;;28.11;30.11
75747;BME280;70632;52.232;21.038;2023-09-30T22:14:59;100914.69;;;27.66;30.78
75747;BME280;70632;52.232;21.038;2023-09-30T22:17:25;100911.91;;;28.14;30.33
75747;BME280;70632;52.232;21.038;2023-09-30T22:19:54;100903.28;;;26.82;31.95
75747;BME280;70632;52.232;21.038;2023-09-30T22:22:20;100907.38;;;26.27;33.00
75747;BME280;70632;52.232;21.038;2023-09-30T22:24:46;100901.91;;;27.17;31.26
75747;BME280;70632;52.232;21.038;2023-09-30T22:27:14;100903.34;;;27.02;32.19
75747;BME280;70632;52.232;21.038;2023-09-30T22:29:39;100902.72;;;29.06;29.17
75747;BME280;70632;52.232;21.038;2023-09-30T22:32:05;100909.47;;;27.91;30.50
75747;BME280;70632;52.232;21.038;2023-09-30T22:34:32;100901.25;;;27.91;30.04
75747;BME280;70632;52.232;21.038;2023-09-30T22:36:58;100901.03;;;26.97;31.95
75747;BME280;70632;52.232;21.038;2023-09-30T22:39:25;100897.56;;;28.29;30.07
75747;BME280;70632;52.232;21.038;2023-09-30T22:41:57;100904.00;;;27.53;30.63
75747;BME280;70632;52.232;21.038;2023-09-30T22:44:23;100895.69;;;28.76;29.93
75747;BME280;70632;52.232;21.038;2023-09-30T22:46:49;100897.03;;;28.53;29.59
75747;BME280;70632;52.232;21.038;2023-09-30T22:49:17;100903.28;;;27.80;30.66
75747;BME280;70632;52.232;21.038;2023-09-30T22:51:43;100896.34;;;26.78;32.13
75747;BME280;70632;52.232;21.038;2023-09-30T22:54:08;100901.53;;;26.81;32.20
75747;BME280;70632;52.232;21.038;2023-09-30T22:56:34;100903.13;;;27.43;30.95
75747;BME280;70632;52.232;21.038;2023-09-30T22:59:00;100905.28;;;27.49;31.18
75747;BME280;70632;52.232;21.038;2023-09-30T23:01:29;100905.84;;;28.10;30.47
75747;BME280;70632;52.232;21.038;2023-09-30T23:03:54;100918.63;;;26.34;33.04
75747;BME280;70632;52.232;21.038;2023-09-30T23:06:22;100914.81;;;27.83;30.27
75747;BME280;70632;52.232;21.038;2023-09-30T23:08:48;100910.97;;;26.28;33.05
75747;BME280;70632;52.232;21.038;2023-09-30T23:11:15;100921.13;;;28.59;30.02
75747;BME280;70632;52.232;21.038;2023-09-30T23:13:47;100917.19;;;28.25;30.15
75747;BME280;70632;52.232;21.038;2023-09-30T23:16:15;100924.22;;;26.12;34.06
75747;BME280;70632;52.232;21.038;2023-09-30T23:18:41;100923.91;;;26.26;33.37
75747;BME280;70632;52.232;21.038;2023-09-30T23:21:08;100922.84;;;27.27;31.91
75747;BME280;70632;52.232;21.038;2023-09-30T23:23:35;100920.06;;;25.55;34.24
75747;BME280;70632;52.232;21.038;2023-09-30T23:26:01;100925.69;;;26.76;33.05
75747;BME280;70632;52.232;21.038;2023-09-30T23:28:29;100911.25;;;27.05;31.65
75747;BME280;70632;52.232;21.038;2023-09-30T23:31:01;100901.06;;;28.03;31.42
75747;BME280;70632;52.232;21.038;2023-09-30T23:33:29;100917.34;;;26.38;32.98
75747;BME280;70632;52.232;21.038;2023-09-30T23:35:56;100919.31;;;26.96;32.38
75747;BME280;70632;52.232;21.038;2023-09-30T23:38:21;100924.81;;;25.94;34.00
75747;BME280;70632;52.232;21.038;2023-09-30T23:40:47;100928.78;;;27.42;32.09
75747;BME280;70632;52.232;21.038;2023-09-30T23:43:14;100931.53;;;26.92;32.33
75747;BME280;70632;52.232;21.038;2023-09-30T23:45:40;100920.16;;;27.66;31.01
75747;BME280;70632;52.232;21.038;2023-09-30T23:48:08;100917.75;;;26.64;32.92
75747;BME280;70632;52.232;21.038;2023-09-30T23:50:35;100926.00;;;26.43;33.13
75747;BME280;70632;52.232;21.038;2023-09-30T23:53:01;100919.84;;;27.40;31.86
75747;BME280;70632;52.232;21.038;2023-09-30T23:55:29;100916.25;;;27.49;31.83
75747;BME280;70632;52.232;21.038;2023-09-30T23:57:56;100924.72;;;27.27;31.88
